createdAt,value
2022-11-07T00:02:11.573Z,71.42
2022-11-07T00:04:39.780Z,71.12
2022-11-07T00:07:09.635Z,70.82
2022-11-07T00:09:37.996Z,70.57
2022-11-07T00:12:06.787Z,70.51
2022-11-07T00:14:35.005Z,69.79
2022-11-07T00:17:02.990Z,70.05
2022-11-07T00:19:30.950Z,69.98
2022-11-07T00:21:58.969Z,70.05
2022-11-07T00:24:28.349Z,70.63
2022-11-07T00:26:56.413Z,70.88
2022-11-07T00:29:24.620Z,70.60
2022-11-07T00:31:52.593Z,70.26
2022-11-07T00:34:20.579Z,71.00
2022-11-07T00:36:48.573Z,71.01
2022-11-07T00:39:16.798Z,71.42
2022-11-07T00:41:48.920Z,71.94
2022-11-07T00:44:17.402Z,72.57
2022-11-07T00:46:45.418Z,73.15
2022-11-07T00:49:13.588Z,73.13
2022-11-07T00:51:42.028Z,73.42
2022-11-07T00:54:11.450Z,73.11
2022-11-07T00:56:39.567Z,72.92
2022-11-07T00:59:09.393Z,73.43
2022-11-07T01:01:37.724Z,73.85
2022-11-07T01:04:24.094Z,74.24
2022-11-07T01:06:52.260Z,74.39
2022-11-07T01:09:22.668Z,74.24
2022-11-07T01:11:51.660Z,74.74
2022-11-07T01:14:23.778Z,73.43
2022-11-07T01:16:52.742Z,73.59
2022-11-07T01:19:21.576Z,73.83
2022-11-07T01:21:49.874Z,74.10
2022-11-07T01:24:19.419Z,73.82
2022-11-07T01:26:48.808Z,74.19
2022-11-07T01:29:18.454Z,74.08
2022-11-07T01:31:48.199Z,73.02
2022-11-07T01:34:17.647Z,73.29
2022-11-07T01:36:45.984Z,71.65
2022-11-07T01:39:14.048Z,72.25
2022-11-07T01:41:42.349Z,72.98
2022-11-07T01:44:50.275Z,73.38
2022-11-07T01:47:20.754Z,72.38
2022-11-07T01:49:49.401Z,72.39
2022-11-07T01:52:22.487Z,72.41
2022-11-07T01:55:02.509Z,72.12
2022-11-07T01:57:35.846Z,72.62
2022-11-07T02:00:09.517Z,72.77
2022-11-07T02:02:40.170Z,72.74
2022-11-07T02:05:10.429Z,73.27
2022-11-07T02:07:40.145Z,72.02
2022-11-07T02:10:10.053Z,72.14
2022-11-07T02:12:38.747Z,72.58
2022-11-07T02:15:11.348Z,72.48
2022-11-07T02:17:41.299Z,72.92
2022-11-07T02:20:11.145Z,72.92
2022-11-07T02:22:48.851Z,73.36
2022-11-07T02:25:21.045Z,73.31
2022-11-07T02:27:54.734Z,73.20
2022-11-07T02:30:25.620Z,73.35
2022-11-07T02:32:54.190Z,72.37
2022-11-07T02:35:39.416Z,72.76
2022-11-07T02:38:13.272Z,72.77
2022-11-07T02:40:45.307Z,71.63
2022-11-07T02:43:17.219Z,72.33
2022-11-07T02:45:49.193Z,72.57
2022-11-07T02:48:17.733Z,72.55
2022-11-07T02:50:46.178Z,72.43
2022-11-07T02:53:14.529Z,70.92
2022-11-07T02:55:44.048Z,71.01
2022-11-07T02:58:12.023Z,70.56
2022-11-07T03:00:40.044Z,70.05
2022-11-07T03:03:08.273Z,69.92
2022-11-07T03:05:36.298Z,69.52
2022-11-07T03:08:04.500Z,69.46
2022-11-07T03:10:32.531Z,69.69
2022-11-07T03:13:01.996Z,68.73
2022-11-07T03:15:30.095Z,68.92
2022-11-07T03:18:00.503Z,68.60
2022-11-07T03:20:28.625Z,68.68
2022-11-07T03:22:56.623Z,68.35
2022-11-07T03:25:24.656Z,68.31
2022-11-07T03:27:52.748Z,67.51
2022-11-07T03:30:22.105Z,68.00
2022-11-07T03:32:53.187Z,67.87
2022-11-07T03:35:21.478Z,68.52
2022-11-07T03:37:50.870Z,68.52
2022-11-07T03:40:18.939Z,67.90
2022-11-07T03:42:47.323Z,67.98
2022-11-07T03:45:17.167Z,67.82
2022-11-07T03:47:48.446Z,68.41
2022-11-07T03:50:19.909Z,68.80
2022-11-07T03:52:49.232Z,68.15
2022-11-07T03:55:18.496Z,68.17
2022-11-07T03:57:47.775Z,67.73
2022-11-07T04:00:17.656Z,68.20
2022-11-07T04:02:47.213Z,68.47
2022-11-07T04:05:15.267Z,68.61
2022-11-07T04:07:43.361Z,68.96
2022-11-07T04:10:11.866Z,69.15
2022-11-07T04:12:57.405Z,69.05
2022-11-07T04:15:43.286Z,68.68
2022-11-07T04:18:12.680Z,69.15
2022-11-07T04:20:40.677Z,69.80
2022-11-07T04:23:08.703Z,70.50
2022-11-07T04:25:54.132Z,70.56
2022-11-07T04:28:22.129Z,71.32
2022-11-07T04:30:50.142Z,71.03
2022-11-07T04:33:19.560Z,71.20
2022-11-07T04:35:47.636Z,71.41
2022-11-07T04:38:15.634Z,72.07
2022-11-07T04:40:43.634Z,72.51
2022-11-07T04:43:11.932Z,72.13
2022-11-07T04:45:40.914Z,72.22
2022-11-07T04:48:10.763Z,72.36
2022-11-07T04:50:40.751Z,71.69
2022-11-07T04:53:08.753Z,72.18
2022-11-07T04:55:36.734Z,72.22
2022-11-07T04:58:04.693Z,72.22
2022-11-07T05:00:32.709Z,72.13
2022-11-07T05:03:00.763Z,72.69
2022-11-07T05:05:29.525Z,72.43
2022-11-07T05:07:58.903Z,72.93
2022-11-07T05:10:30.201Z,72.73
2022-11-07T05:12:58.545Z,73.22
2022-11-07T05:15:26.548Z,73.21
2022-11-07T05:17:54.646Z,73.71
2022-11-07T05:20:32.689Z,73.57
2022-11-07T05:23:19.793Z,74.06
2022-11-07T05:25:50.972Z,74.19
2022-11-07T05:28:30.288Z,74.11
2022-11-07T05:31:01.701Z,74.66
2022-11-07T05:33:30.310Z,74.96
2022-11-07T05:35:58.354Z,75.02
2022-11-07T05:38:27.706Z,75.23
2022-11-07T05:40:55.681Z,75.58
2022-11-07T05:43:24.564Z,75.68
2022-11-07T05:45:52.535Z,75.98
2022-11-07T05:48:20.508Z,75.62
2022-11-07T05:50:48.517Z,75.79
2022-11-07T05:53:16.838Z,75.84
2022-11-07T05:55:46.460Z,75.10
2022-11-07T05:58:15.210Z,75.03
2022-11-07T06:00:43.528Z,75.93
2022-11-07T06:03:12.130Z,76.13
2022-11-07T06:05:42.104Z,76.43
2022-11-07T06:08:13.645Z,77.07
2022-11-07T06:10:43.736Z,77.71
2022-11-07T06:13:16.556Z,77.82
2022-11-07T06:15:46.948Z,78.30
2022-11-07T06:18:17.729Z,78.48
2022-11-07T06:20:46.251Z,78.40
2022-11-07T06:23:14.813Z,78.15
2022-11-07T06:25:43.179Z,78.18
2022-11-07T06:28:14.347Z,77.48
2022-11-07T06:30:42.796Z,77.83
2022-11-07T06:33:14.841Z,77.71
2022-11-07T06:35:44.125Z,77.22
2022-11-07T06:38:14.583Z,76.65
2022-11-07T06:40:43.518Z,74.73
2022-11-07T06:43:16.330Z,74.63
2022-11-07T06:45:46.374Z,74.27
2022-11-07T06:48:14.985Z,73.59
2022-11-07T06:50:43.040Z,73.11
2022-11-07T06:53:14.651Z,73.09
2022-11-07T06:55:43.067Z,72.77
2022-11-07T06:58:11.038Z,72.29
2022-11-07T07:00:40.504Z,72.63
2022-11-07T07:03:08.604Z,72.59
2022-11-07T07:05:36.906Z,72.36
2022-11-07T07:08:07.775Z,72.81
2022-11-07T07:10:40.254Z,72.87
2022-11-07T07:13:08.330Z,73.41
2022-11-07T07:15:49.901Z,73.50
2022-11-07T07:18:21.231Z,72.47
2022-11-07T07:20:49.708Z,72.61
2022-11-07T07:23:18.926Z,72.65
2022-11-07T07:25:47.490Z,72.49
2022-11-07T07:28:15.558Z,71.29
2022-11-07T07:30:48.717Z,71.45
2022-11-07T07:33:20.927Z,71.69
2022-11-07T07:35:48.940Z,70.76
2022-11-07T07:38:16.955Z,70.75
2022-11-07T07:40:44.920Z,70.91
2022-11-07T07:43:13.125Z,71.58
2022-11-07T07:45:41.217Z,71.51
2022-11-07T07:48:09.653Z,71.50
2022-11-07T07:50:39.007Z,71.57
2022-11-07T07:53:09.204Z,71.23
2022-11-07T07:55:37.467Z,71.80
2022-11-07T07:58:05.616Z,71.78
2022-11-07T08:00:33.853Z,70.84
2022-11-07T08:03:02.776Z,71.62
2022-11-07T08:05:30.852Z,71.71
2022-11-07T08:08:00.752Z,71.78
2022-11-07T08:10:42.145Z,72.18
2022-11-07T08:13:10.928Z,70.97
2022-11-07T08:15:39.121Z,70.59
2022-11-07T08:18:07.369Z,70.01
2022-11-07T08:20:35.382Z,69.88
2022-11-07T08:23:14.909Z,70.04
2022-11-07T08:25:44.646Z,69.83
2022-11-07T08:28:12.605Z,69.94
2022-11-07T08:30:40.566Z,69.70
2022-11-07T08:33:09.214Z,68.66
2022-11-07T08:35:42.278Z,68.10
2022-11-07T08:38:12.140Z,68.17
2022-11-07T08:40:40.310Z,67.98
2022-11-07T08:43:08.712Z,67.63
2022-11-07T08:45:36.730Z,67.30
2022-11-07T08:48:05.132Z,66.77
2022-11-07T08:50:33.135Z,66.36
2022-11-07T08:53:03.251Z,67.19
2022-11-07T08:55:33.310Z,67.61
2022-11-07T08:58:03.087Z,68.06
2022-11-07T09:00:32.058Z,68.10
2022-11-07T09:05:51.697Z,68.85
2022-11-07T09:08:19.870Z,68.84
2022-11-07T09:10:49.250Z,68.14
2022-11-07T09:13:17.807Z,68.04
2022-11-07T09:15:50.619Z,66.79
2022-11-07T09:18:20.491Z,66.23
2022-11-07T09:20:48.555Z,65.94
2022-11-07T09:23:17.005Z,64.84
2022-11-07T09:25:45.458Z,64.52
2022-11-07T09:28:15.982Z,64.00
2022-11-07T09:30:44.518Z,64.19
2022-11-07T09:33:12.835Z,63.71
2022-11-07T09:35:40.987Z,63.29
2022-11-07T09:38:08.959Z,63.31
2022-11-07T09:40:49.863Z,63.99
2022-11-07T09:43:59.307Z,63.42
2022-11-07T09:46:43.926Z,63.75
2022-11-07T09:49:21.265Z,62.66
2022-11-07T09:51:57.451Z,62.56
2022-11-07T09:54:30.342Z,63.22
2022-11-07T09:57:00.904Z,63.82
2022-11-07T09:59:39.880Z,63.16
2022-11-07T10:02:18.139Z,62.02
2022-11-07T10:04:51.160Z,62.34
2022-11-07T10:07:37.279Z,61.90
2022-11-07T10:10:19.025Z,61.51
2022-11-07T10:13:21.029Z,61.10
2022-11-07T10:16:05.498Z,60.84
2022-11-07T10:18:51.419Z,61.90
2022-11-07T10:21:38.578Z,61.90
2022-11-07T10:24:28.984Z,61.85
2022-11-07T10:26:58.610Z,61.88
2022-11-07T10:29:44.234Z,61.92
2022-11-07T10:32:23.691Z,61.45
2022-11-07T10:35:15.998Z,61.57
2022-11-07T10:37:43.961Z,59.59
2022-11-07T10:40:18.543Z,59.23
2022-11-07T10:42:50.061Z,59.91
2022-11-07T10:45:19.207Z,59.94
2022-11-07T10:47:59.782Z,60.51
2022-11-07T10:50:28.616Z,60.45
2022-11-07T10:52:58.638Z,60.67
2022-11-07T10:55:28.520Z,60.97
2022-11-07T10:58:05.040Z,60.51
2022-11-07T11:00:40.222Z,60.14
2022-11-07T11:03:41.878Z,60.26
2022-11-07T11:06:21.958Z,60.64
2022-11-07T11:08:52.936Z,60.72
2022-11-07T11:11:32.489Z,60.85
2022-11-07T11:14:07.922Z,61.05
2022-11-07T11:16:39.921Z,60.32
2022-11-07T11:19:23.009Z,60.98
2022-11-07T11:21:55.049Z,61.16
2022-11-07T11:24:32.838Z,60.33
2022-11-07T11:27:07.216Z,60.63
2022-11-07T11:29:46.140Z,60.16
2022-11-07T11:32:28.312Z,60.15
2022-11-07T11:35:14.198Z,59.93
2022-11-07T11:37:48.862Z,60.35
2022-11-07T11:40:23.118Z,60.15
2022-11-07T11:43:00.493Z,60.30
2022-11-07T11:45:42.117Z,60.40
2022-11-07T11:48:24.531Z,59.88
2022-11-07T11:51:03.202Z,60.37
2022-11-07T11:53:31.574Z,59.95
2022-11-07T11:56:23.457Z,60.68
2022-11-07T11:59:10.752Z,60.89
2022-11-07T12:01:51.084Z,61.03
2022-11-07T12:04:44.449Z,61.24
2022-11-07T12:07:45.604Z,61.65
2022-11-07T12:10:26.595Z,62.00
2022-11-07T12:13:09.430Z,62.25
2022-11-07T12:15:52.333Z,62.44
2022-11-07T12:18:33.452Z,61.82
2022-11-07T12:21:23.059Z,62.09
2022-11-07T12:24:18.656Z,61.97
2022-11-07T12:26:59.442Z,61.34
2022-11-07T12:29:45.357Z,61.30
2022-11-07T12:32:25.480Z,61.75
2022-11-07T12:35:29.151Z,61.24
2022-11-07T12:38:35.647Z,61.07
2022-11-07T12:41:17.267Z,61.75
2022-11-07T12:44:01.985Z,61.40
2022-11-07T12:46:45.712Z,61.23
2022-11-07T12:49:40.945Z,61.83
2022-11-07T12:52:35.875Z,61.53
2022-11-07T12:55:18.149Z,61.59
2022-11-07T12:57:51.166Z,60.56
2022-11-07T13:00:27.883Z,60.53
2022-11-07T13:03:20.645Z,60.97
2022-11-07T13:06:03.097Z,61.10
2022-11-07T13:08:39.880Z,61.16
2022-11-07T13:11:21.076Z,60.75
2022-11-07T13:14:24.054Z,60.74
2022-11-07T13:17:04.175Z,61.14
2022-11-07T13:19:34.949Z,61.64
2022-11-07T13:22:05.923Z,61.59
2022-11-07T13:24:38.804Z,60.84
2022-11-07T13:27:21.646Z,61.51
2022-11-07T13:29:51.605Z,61.74
2022-11-07T13:32:20.247Z,61.48
2022-11-07T13:34:59.127Z,60.77
2022-11-07T13:37:34.129Z,61.24
2022-11-07T13:40:16.982Z,61.08
2022-11-07T13:42:47.825Z,60.77
2022-11-07T13:45:30.259Z,61.45
2022-11-07T13:48:04.208Z,60.94
2022-11-07T13:50:41.516Z,60.96
2022-11-07T13:53:19.615Z,61.53
2022-11-07T13:55:58.857Z,61.97
2022-11-07T13:58:30.148Z,61.92
2022-11-07T14:01:10.971Z,62.71
2022-11-07T14:03:39.426Z,62.32
2022-11-07T14:06:08.824Z,62.62
2022-11-07T14:08:42.021Z,62.63
2022-11-07T14:11:20.072Z,62.56
2022-11-07T14:13:52.168Z,61.99
2022-11-07T14:16:25.288Z,62.65
2022-11-07T14:18:59.961Z,63.12
2022-11-07T14:21:31.173Z,62.69
2022-11-07T14:23:59.878Z,62.91
2022-11-07T14:26:32.265Z,62.28
2022-11-07T14:29:01.653Z,62.44
2022-11-07T14:31:34.159Z,63.17
2022-11-07T14:34:06.377Z,62.93
2022-11-07T14:36:36.350Z,62.84
2022-11-07T14:39:12.888Z,63.06
2022-11-07T14:41:45.807Z,62.67
2022-11-07T14:44:19.087Z,62.77
2022-11-07T14:46:49.667Z,63.31
2022-11-07T14:49:26.285Z,63.38
2022-11-07T14:51:55.614Z,63.57
2022-11-07T14:54:32.395Z,63.63
2022-11-07T14:57:02.118Z,63.51
2022-11-07T14:59:33.516Z,63.79
2022-11-07T15:02:23.007Z,63.66
2022-11-07T15:04:51.635Z,63.35
2022-11-07T15:07:24.874Z,62.86
2022-11-07T15:09:55.673Z,64.00
2022-11-07T15:12:26.870Z,64.48
2022-11-07T15:15:20.999Z,65.02
2022-11-07T15:17:52.866Z,64.67
2022-11-07T15:20:33.043Z,65.00
2022-11-07T15:23:03.157Z,65.54
2022-11-07T15:25:36.826Z,66.49
2022-11-07T15:28:24.547Z,65.63
2022-11-07T15:30:55.422Z,65.97
2022-11-07T15:33:25.660Z,65.36
2022-11-07T15:35:58.635Z,65.62
2022-11-07T15:38:30.510Z,65.42
2022-11-07T15:40:58.914Z,65.31
2022-11-07T15:43:26.949Z,65.31
2022-11-07T15:45:55.396Z,65.35
2022-11-07T15:48:31.075Z,64.47
2022-11-07T15:50:59.083Z,64.78
2022-11-07T15:53:29.440Z,64.32
2022-11-07T15:56:01.383Z,65.24
2022-11-07T15:58:31.118Z,65.81
2022-11-07T16:00:59.639Z,64.79
2022-11-07T16:03:29.283Z,64.81
2022-11-07T16:06:01.615Z,65.27
2022-11-07T16:08:31.606Z,65.82
2022-11-07T16:11:02.386Z,66.47
2022-11-07T16:13:30.666Z,66.26
2022-11-07T16:16:02.940Z,66.55
2022-11-07T16:18:40.848Z,66.72
2022-11-07T16:21:08.929Z,66.50
2022-11-07T16:23:37.159Z,66.08
2022-11-07T16:26:05.393Z,65.92
2022-11-07T16:28:36.575Z,66.18
2022-11-07T16:31:04.929Z,66.35
2022-11-07T16:33:34.716Z,66.91
2022-11-07T16:36:15.721Z,66.58
2022-11-07T16:38:43.732Z,66.96
2022-11-07T16:41:14.039Z,67.59
2022-11-07T16:43:42.619Z,68.27
2022-11-07T16:46:15.563Z,68.55
2022-11-07T16:48:47.885Z,68.17
2022-11-07T16:51:19.728Z,67.25
2022-11-07T16:53:48.935Z,66.93
2022-11-07T16:56:26.442Z,67.62
2022-11-07T16:58:55.251Z,67.04
2022-11-07T17:01:24.312Z,67.61
2022-11-07T17:03:54.124Z,68.22
2022-11-07T17:06:28.563Z,68.78
2022-11-07T17:09:03.310Z,67.94
2022-11-07T17:11:35.345Z,67.91
2022-11-07T17:14:03.374Z,68.36
2022-11-07T17:16:34.879Z,69.38
2022-11-07T17:19:06.021Z,68.62
2022-11-07T17:21:37.223Z,69.36
2022-11-07T17:24:07.322Z,69.06
2022-11-07T17:26:38.765Z,69.46
2022-11-07T17:29:09.637Z,68.18
2022-11-07T17:31:37.636Z,68.11
2022-11-07T17:34:07.249Z,68.76
2022-11-07T17:36:38.380Z,69.51
2022-11-07T17:39:11.514Z,69.13
2022-11-07T17:41:41.574Z,69.87
2022-11-07T17:44:11.152Z,69.69
2022-11-07T17:46:43.933Z,69.78
2022-11-07T17:49:17.874Z,70.67
2022-11-07T17:51:46.564Z,69.99
2022-11-07T17:54:16.720Z,70.60
2022-11-07T17:56:44.896Z,70.50
2022-11-07T17:59:16.979Z,70.57
2022-11-07T18:01:46.645Z,70.60
2022-11-07T18:04:16.161Z,70.88
2022-11-07T18:06:44.741Z,71.52
2022-11-07T18:09:16.416Z,71.88
2022-11-07T18:11:45.654Z,72.29
2022-11-07T18:14:15.044Z,73.20
2022-11-07T18:16:43.373Z,72.65
2022-11-07T18:19:12.121Z,72.94
2022-11-07T18:21:41.498Z,73.16
2022-11-07T18:24:10.492Z,73.45
2022-11-07T18:26:38.564Z,73.89
2022-11-07T18:29:10.207Z,73.71
2022-11-07T18:31:40.423Z,73.75
2022-11-07T18:34:12.733Z,73.75
2022-11-07T18:36:44.316Z,73.46
2022-11-07T18:39:16.121Z,73.86
2022-11-07T18:41:44.824Z,74.26
2022-11-07T18:44:13.757Z,73.78
2022-11-07T18:46:42.953Z,73.87
2022-11-07T18:49:13.868Z,74.42
2022-11-07T18:51:43.923Z,74.03
2022-11-07T18:54:13.622Z,74.05
2022-11-07T18:56:43.023Z,73.84
2022-11-07T18:59:11.450Z,73.82
2022-11-07T19:01:39.788Z,73.98
2022-11-07T19:04:10.235Z,74.61
2022-11-07T19:06:56.752Z,74.87
2022-11-07T19:09:30.057Z,75.25
2022-11-07T19:11:59.733Z,74.94
2022-11-07T19:14:29.687Z,75.00
2022-11-07T19:16:58.724Z,74.92
2022-11-07T19:19:26.875Z,74.71
2022-11-07T19:21:54.927Z,74.78
2022-11-07T19:24:22.965Z,74.71
2022-11-07T19:26:52.302Z,74.12
2022-11-07T19:29:20.354Z,72.64
2022-11-07T19:31:48.341Z,73.00
2022-11-07T19:34:18.021Z,72.73
2022-11-07T19:36:46.024Z,73.56
2022-11-07T19:39:14.072Z,73.78
2022-11-07T19:41:42.084Z,73.89
2022-11-07T19:44:11.709Z,73.96
2022-11-07T19:46:39.724Z,74.30
2022-11-07T19:49:07.807Z,74.24
2022-11-07T19:51:36.288Z,74.19
2022-11-07T19:54:07.459Z,73.87
2022-11-07T19:56:35.549Z,74.05
2022-11-07T19:59:03.793Z,73.66
2022-11-07T20:01:35.624Z,73.83
2022-11-07T20:04:04.532Z,74.25
2022-11-07T20:06:37.346Z,73.83
2022-11-07T20:09:07.663Z,73.89
2022-11-07T20:11:36.314Z,74.43
2022-11-07T20:14:04.762Z,74.83
2022-11-07T20:16:35.089Z,75.15
2022-11-07T20:19:03.602Z,74.36
2022-11-07T20:21:33.641Z,74.52
2022-11-07T20:24:02.050Z,74.58
2022-11-07T20:26:32.631Z,74.24
2022-11-07T20:29:00.936Z,74.92
2022-11-07T20:31:32.652Z,74.65
2022-11-07T20:34:04.235Z,75.33
2022-11-07T20:36:33.257Z,76.13
2022-11-07T20:39:03.322Z,76.42
2022-11-07T20:41:31.818Z,77.02
2022-11-07T20:44:03.891Z,77.08
2022-11-07T20:46:33.344Z,77.35
2022-11-07T20:49:06.307Z,77.18
2022-11-07T20:51:35.064Z,76.08
2022-11-07T20:54:03.766Z,75.89
2022-11-07T20:56:32.156Z,76.43
2022-11-07T20:59:00.435Z,76.43
2022-11-07T21:01:35.826Z,75.26
2022-11-07T21:04:07.850Z,75.15
2022-11-07T21:06:36.595Z,75.31
2022-11-07T21:09:06.632Z,74.91
2022-11-07T21:11:35.585Z,73.35
2022-11-07T21:14:04.461Z,72.85
2022-11-07T21:16:34.462Z,74.38
2022-11-07T21:19:04.944Z,74.67
2022-11-07T21:21:34.713Z,74.49
2022-11-07T21:24:03.962Z,75.34
2022-11-07T21:26:35.975Z,75.45
2022-11-07T21:29:07.353Z,76.12
2022-11-07T21:31:38.059Z,76.46
2022-11-07T21:34:07.281Z,75.68
2022-11-07T21:36:36.761Z,76.28
2022-11-07T21:39:06.043Z,75.17
2022-11-07T21:41:34.216Z,76.17
2022-11-07T21:44:02.286Z,76.72
2022-11-07T21:46:34.261Z,77.18
2022-11-07T21:49:02.867Z,77.03
2022-11-07T21:51:34.098Z,77.64
2022-11-07T21:54:06.171Z,78.36
2022-11-07T21:56:36.790Z,77.61
2022-11-07T21:59:07.495Z,78.12
2022-11-07T22:01:37.209Z,78.27
2022-11-07T22:04:10.158Z,77.37
2022-11-07T22:06:43.072Z,78.35
2022-11-07T22:09:15.802Z,79.10
2022-11-07T22:11:43.975Z,79.34
2022-11-07T22:14:15.187Z,78.94
2022-11-07T22:16:43.419Z,79.22
2022-11-07T22:19:12.949Z,80.14
2022-11-07T22:21:42.000Z,80.45
2022-11-07T22:24:12.020Z,80.75
2022-11-07T22:26:40.325Z,81.25
2022-11-07T22:29:08.579Z,81.30
2022-11-07T22:31:36.698Z,80.88
2022-11-07T22:34:04.830Z,80.24
2022-11-07T22:36:32.822Z,80.32
2022-11-07T22:39:00.872Z,79.82
2022-11-07T22:41:30.882Z,78.45
2022-11-07T22:43:59.925Z,78.66
2022-11-07T22:46:30.831Z,77.83
2022-11-07T22:49:00.428Z,77.42
2022-11-07T22:51:31.387Z,76.97
2022-11-07T22:54:02.024Z,77.35
2022-11-07T22:56:32.833Z,76.90
2022-11-07T22:59:01.258Z,77.30
2022-11-07T23:01:32.800Z,77.63
2022-11-07T23:04:01.055Z,78.24
2022-11-07T23:06:30.322Z,77.92
2022-11-07T23:09:00.112Z,78.46
2022-11-07T23:11:49.028Z,78.76
2022-11-07T23:14:21.389Z,77.45
2022-11-07T23:16:51.898Z,76.98
2022-11-07T23:19:22.968Z,77.64
2022-11-07T23:21:52.394Z,78.01
2022-11-07T23:24:21.160Z,78.44
2022-11-07T23:26:50.895Z,78.82
2022-11-07T23:29:21.710Z,78.41
2022-11-07T23:31:51.701Z,78.31
2022-11-07T23:34:21.545Z,77.92
2022-11-07T23:36:51.850Z,77.98
2022-11-07T23:39:23.168Z,78.39
2022-11-07T23:41:52.922Z,78.78
2022-11-07T23:44:21.067Z,79.35
2022-11-07T23:47:06.728Z,79.84
2022-11-07T23:49:52.247Z,79.75
2022-11-07T23:52:20.238Z,80.18
2022-11-07T23:55:05.711Z,80.31
2022-11-07T23:57:57.012Z,80.40
